Time;durP1;ratioP1;P1;durP2;ratioP2;P2;SDS_P1;SDS_P2;PMS_P1;PMS_P2;Temp;Humidity;BMP_temperature;BMP_pressure;BME280_temperature;BME280_humidity;BME280_pressure;Samples;Min_cycle;Max_cycle;Signal;HPM_P1;HPM_P2
2022/04/16 00:02:00;;;;;;;819.72;717.08;;;7.40;1.00;;;;;;5134253;27;20193;-76
2022/04/16 00:04:28;;;;;;;808.58;721.08;;;7.40;1.00;;;;;;5133626;27;20483;-82
2022/04/16 00:06:54;;;;;;;872.33;739.83;;;7.50;1.00;;;;;;5134198;27;20046;-76
2022/04/16 00:09:20;;;;;;;702.95;634.22;;;7.70;1.00;;;;;;5133988;27;20188;-76
2022/04/16 00:11:46;;;;;;;669.47;605.55;;;7.70;1.00;;;;;;5098596;27;20506;-76
2022/04/16 00:14:12;;;;;;;693.58;632.35;;;7.80;1.00;;;;;;5115080;27;20047;-76
2022/04/16 00:16:38;;;;;;;634.08;578.88;;;7.70;1.00;;;;;;5115548;27;20047;-76
2022/04/16 00:19:04;;;;;;;629.15;574.28;;;8.60;1.00;;;;;;5133820;27;20043;-77
2022/04/16 00:21:30;;;;;;;588.65;535.95;;;8.20;1.00;;;;;;5133341;27;20039;-76
2022/04/16 00:23:57;;;;;;;652.20;592.47;;;8.90;1.00;;;;;;5133969;27;20086;-76
2022/04/16 00:26:23;;;;;;;642.58;585.50;;;7.60;1.00;;;;;;5115360;27;20058;-78
2022/04/16 00:28:52;;;;;;;675.90;610.50;;;7.50;1.00;;;;;;5115112;27;20045;-75
2022/04/16 00:31:18;;;;;;;630.63;572.22;;;7.50;1.00;;;;;;5133788;27;20043;-79
2022/04/16 00:33:46;;;;;;;729.92;655.72;;;7.40;1.40;;;;;;5133007;27;20078;-75
2022/04/16 00:36:14;;;;;;;636.67;579.13;;;8.60;4.50;;;;;;5132743;27;20043;-76
2022/04/16 00:38:40;;;;;;;628.83;571.63;;;7.80;4.90;;;;;;5116118;27;20054;-76
2022/04/16 00:41:06;;;;;;;639.92;586.10;;;7.20;4.90;;;;;;5140133;27;20035;-78
2022/04/16 00:43:33;;;;;;;713.97;629.65;;;8.50;7.50;;;;;;5151812;27;20076;-77
2022/04/16 00:45:59;;;;;;;630.35;577.05;;;7.10;20.20;;;;;;5151876;27;20467;-77
2022/04/16 00:48:25;;;;;;;621.08;566.78;;;7.10;21.30;;;;;;5152999;27;20063;-77
2022/04/16 00:50:53;;;;;;;692.17;626.60;;;7.00;20.90;;;;;;5151190;27;20042;-80
2022/04/16 00:53:19;;;;;;;679.40;616.88;;;7.80;22.60;;;;;;5151837;27;20062;-76
2022/04/16 00:55:46;;;;;;;619.28;566.00;;;7.00;21.80;;;;;;5131481;27;20051;-76
2022/04/16 00:58:11;;;;;;;657.53;597.60;;;6.90;24.20;;;;;;5137101;27;20391;-76
2022/04/16 01:00:37;;;;;;;700.88;633.08;;;7.20;32.30;;;;;;5132321;27;20054;-78
2022/04/16 01:03:03;;;;;;;810.90;688.72;;;8.60;39.80;;;;;;5133183;27;20047;-76
2022/04/16 01:05:29;;;;;;;643.85;591.55;;;7.40;44.90;;;;;;5114251;27;20051;-84
2022/04/16 01:07:59;;;;;;;620.15;565.35;;;7.80;49.50;;;;;;5132673;27;20047;-76
2022/04/16 01:10:27;;;;;;;661.78;602.72;;;6.80;49.40;;;;;;5132820;27;20043;-76
2022/04/16 01:12:54;;;;;;;643.97;585.60;;;6.90;53.80;;;;;;5132234;27;20042;-76
2022/04/16 01:15:20;;;;;;;675.08;613.15;;;7.50;52.90;;;;;;5114592;27;20142;-76
2022/04/16 01:17:50;;;;;;;666.30;607.45;;;7.70;62.20;;;;;;5113227;27;20055;-76
2022/04/16 01:20:17;;;;;;;643.05;587.42;;;6.80;62.30;;;;;;5132399;27;20043;-75
2022/04/16 01:22:50;;;;;;;568.22;522.70;;;8.00;65.80;;;;;;5097052;27;20138;-76
2022/04/16 01:25:16;;;;;;;556.72;513.03;;;6.70;61.10;;;;;;5131629;27;20045;-76
2022/04/16 01:27:48;;;;;;;589.97;541.10;;;7.60;60.80;;;;;;5113638;27;20465;-76
2022/04/16 01:30:16;;;;;;;546.17;504.05;;;6.60;62.60;;;;;;5132242;27;20086;-76
2022/04/16 01:32:42;;;;;;;626.13;575.28;;;6.90;68.80;;;;;;5113417;27;20050;-79
2022/04/16 01:35:10;;;;;;;551.17;510.33;;;6.60;72.40;;;;;;5096585;27;20051;-77
2022/04/16 01:37:37;;;;;;;542.25;501.40;;;6.60;73.20;;;;;;5132218;27;20043;-77
2022/04/16 01:40:05;;;;;;;582.88;531.35;;;7.50;74.10;;;;;;5133492;27;20171;-77
2022/04/16 01:42:32;;;;;;;;;;;6.50;76.70;;;;;;5098228;27;20056;-83
2022/04/16 01:45:00;;;;;;;603.85;553.58;;;6.50;74.20;;;;;;5132571;27;19930;-77
2022/04/16 01:47:27;;;;;;;569.42;527.33;;;6.80;75.10;;;;;;5114303;27;20047;-77
2022/04/16 01:49:54;;;;;;;619.28;569.42;;;7.80;73.60;;;;;;5131855;27;20694;-79
2022/04/16 01:52:21;;;;;;;553.28;513.00;;;7.10;76.50;;;;;;5113616;27;20403;-77
2022/04/16 01:54:47;;;;;;;532.30;492.65;;;6.30;75.20;;;;;;5131742;27;20060;-77
2022/04/16 01:57:13;;;;;;;544.17;504.17;;;7.70;76.80;;;;;;5113137;28;20063;-77
2022/04/16 01:59:39;;;;;;;571.17;525.90;;;6.20;76.60;;;;;;5131401;27;20110;-77
2022/04/16 02:02:04;;;;;;;541.50;502.15;;;7.30;77.90;;;;;;5113732;27;20123;-77
2022/04/16 02:04:32;;;;;;;563.60;516.25;;;6.00;83.00;;;;;;5113170;27;20111;-77
2022/04/16 02:06:58;;;;;;;719.05;651.72;;;7.00;86.60;;;;;;5131944;28;20051;-76
2022/04/16 02:09:24;;;;;;;556.38;517.00;;;6.00;90.20;;;;;;5131686;28;20383;-77
2022/04/16 02:11:49;;;;;;;568.88;526.78;;;6.00;91.30;;;;;;5113249;28;20094;-77
2022/04/16 02:14:15;;;;;;;540.92;499.70;;;5.90;90.40;;;;;;5096436;28;20054;-76
2022/04/16 02:16:40;;;;;;;519.25;482.30;;;5.90;90.30;;;;;;5096116;28;20039;-77
2022/04/16 02:19:06;;;;;;;561.70;504.45;;;7.00;92.80;;;;;;5131678;28;20035;-76
2022/04/16 02:21:32;;;;;;;526.90;486.85;;;5.80;93.40;;;;;;5131853;28;20086;-76
2022/04/16 02:23:58;;;;;;;508.67;472.00;;;7.30;93.00;;;;;;5131224;28;20079;-76
2022/04/16 02:26:26;;;;;;;563.30;523.42;;;6.30;93.00;;;;;;5096695;28;20420;-76
2022/04/16 02:28:51;;;;;;;542.07;502.70;;;5.70;93.40;;;;;;5113143;28;20399;-77
2022/04/16 02:31:17;;;;;;;530.63;493.27;;;5.60;92.90;;;;;;5131806;28;20039;-76
2022/04/16 02:33:43;;;;;;;518.30;480.75;;;5.60;92.70;;;;;;5112536;28;20059;-77
2022/04/16 02:36:09;;;;;;;488.45;453.60;;;6.80;93.40;;;;;;5131472;27;20195;-75
2022/04/16 02:38:35;;;;;;;546.28;508.13;;;;;;;;;;5135206;27;20368;-83
2022/04/16 02:41:01;;;;;;;540.55;490.77;;;5.50;94.10;;;;;;5135871;27;20107;-76
2022/04/16 02:43:27;;;;;;;510.73;473.42;;;6.70;97.30;;;;;;5135754;27;20518;-80
2022/04/16 02:48:37;;;;;;;525.63;485.52;;;;;;;;;;5135305;27;20159;-83
2022/04/16 02:51:03;;;;;;;527.15;486.83;;;5.60;99.90;;;;;;5135815;27;20043;-79
2022/04/16 02:53:31;;;;;;;601.28;557.50;;;6.50;99.90;;;;;;5117226;27;20047;-77
2022/04/16 02:55:57;;;;;;;579.70;537.63;;;6.20;99.90;;;;;;5135134;27;20615;-76
2022/04/16 02:58:22;;;;;;;569.60;526.10;;;6.10;99.90;;;;;;5135475;27;20047;-76
2022/04/16 03:00:48;;;;;;;570.17;526.95;;;6.30;99.90;;;;;;5134714;27;20047;-77
2022/04/16 03:03:15;;;;;;;591.90;544.30;;;6.40;99.90;;;;;;5135319;27;20099;-77
2022/04/16 03:05:41;;;;;;;634.72;587.50;;;8.10;99.90;;;;;;5134902;27;20043;-76
2022/04/16 03:08:11;;;;;;;564.42;523.78;;;6.70;99.90;;;;;;5116922;27;20050;-76
2022/04/16 03:10:37;;;;;;;651.17;604.40;;;6.80;99.90;;;;;;5135372;27;20054;-76
2022/04/16 03:13:03;;;;;;;581.22;539.30;;;6.90;98.30;;;;;;5135224;27;20116;-77
2022/04/16 03:18:13;;;;;;;588.63;545.60;;;8.70;99.10;;;;;;5135071;27;20043;-77
2022/04/16 03:20:40;;;;;;;588.55;546.75;;;7.30;99.90;;;;;;5134797;27;20134;-76
2022/04/16 03:23:06;;;;;;;572.35;531.30;;;8.60;98.70;;;;;;5135469;27;20055;-78
2022/04/16 03:25:32;;;;;;;587.83;545.92;;;7.30;99.90;;;;;;5116492;27;20556;-77
2022/04/16 03:27:58;;;;;;;598.15;555.55;;;7.40;97.70;;;;;;5116165;27;20100;-77
2022/04/16 03:30:25;;;;;;;610.67;567.55;;;7.50;94.70;;;;;;5135048;27;20047;-76
2022/04/16 03:32:52;;;;;;;625.42;580.78;;;7.40;94.90;;;;;;5115958;27;20053;-76
2022/04/16 03:35:20;;;;;;;596.90;554.65;;;8.50;99.90;;;;;;5134453;27;20054;-77
2022/04/16 03:37:46;;;;;;;584.58;543.58;;;7.60;99.90;;;;;;5115995;27;20144;-77
2022/04/16 03:40:15;;;;;;;600.05;557.08;;;7.60;99.90;;;;;;5134954;27;20055;-76
2022/04/16 03:42:48;;;;;;;575.10;534.95;;;7.60;99.90;;;;;;5134450;27;20039;-84
2022/04/16 03:45:20;;;;;;;617.35;573.83;;;7.70;99.90;;;;;;5116674;27;20062;-77
2022/04/16 03:47:47;;;;;;;588.33;546.97;;;7.70;99.10;;;;;;5115326;27;20039;-77
2022/04/16 03:50:14;;;;;;;570.47;529.42;;;9.20;98.30;;;;;;5133388;27;20605;-77
2022/04/16 03:52:41;;;;;;;598.60;555.65;;;8.80;99.90;;;;;;5134691;27;20344;-77
2022/04/16 04:00:39;;;;;;;609.17;566.50;;;8.00;99.90;;;;;;5134006;27;20058;-76
2022/04/16 04:03:05;;;;;;;611.10;567.17;;;8.10;99.90;;;;;;5115289;27;20051;-77
2022/04/16 04:05:31;;;;;;;579.42;538.13;;;8.10;99.90;;;;;;5115658;27;20459;-78
2022/04/16 04:07:56;;;;;;;599.45;556.80;;;8.80;99.90;;;;;;5098186;27;20086;-76
2022/04/16 04:10:22;;;;;;;607.35;564.47;;;8.10;99.90;;;;;;5115816;27;20434;-77
2022/04/16 04:12:48;;;;;;;586.08;544.85;;;8.10;99.80;;;;;;5133454;27;20544;-76
2022/04/16 04:15:13;;;;;;;564.22;524.05;;;8.10;99.20;;;;;;5134200;27;20089;-77
2022/04/16 04:17:39;;;;;;;612.70;569.47;;;8.20;99.90;;;;;;5134459;27;20475;-80
2022/04/16 04:20:05;;;;;;;624.78;580.60;;;9.10;99.90;;;;;;5114636;27;20208;-78
2022/04/16 04:22:31;;;;;;;601.80;558.63;;;8.20;99.90;;;;;;5115600;27;20508;-77
2022/04/16 04:24:57;;;;;;;560.88;520.65;;;9.50;99.90;;;;;;5133682;27;20134;-76
2022/04/16 04:27:22;;;;;;;607.05;563.85;;;8.20;99.90;;;;;;5133910;27;20367;-77
2022/04/16 04:29:48;;;;;;;576.20;535.30;;;8.40;99.90;;;;;;5114292;27;20390;-76
2022/04/16 04:32:14;;;;;;;556.78;517.35;;;8.30;99.90;;;;;;5133790;27;20058;-77
2022/04/16 04:34:39;;;;;;;549.05;509.67;;;8.60;99.90;;;;;;5133276;27;20138;-77
2022/04/16 04:37:05;;;;;;;565.80;525.10;;;8.90;99.90;;;;;;5113927;27;20042;-77
2022/04/16 04:39:31;;;;;;;572.10;531.95;;;8.90;99.90;;;;;;5133296;27;20122;-77
2022/04/16 04:41:57;;;;;;;610.35;566.78;;;8.30;99.90;;;;;;5133223;27;20530;-77
2022/04/16 04:44:22;;;;;;;627.83;583.83;;;9.90;99.90;;;;;;5133332;27;20047;-78
2022/04/16 04:46:48;;;;;;;710.40;655.42;;;8.30;99.90;;;;;;5133086;27;20065;-78
2022/04/16 04:49:14;;;;;;;684.63;626.90;;;8.80;99.90;;;;;;5132963;27;20175;-78
2022/04/16 04:51:39;;;;;;;507.17;473.17;;;8.40;98.30;;;;;;5133201;27;20061;-77
2022/04/16 04:54:06;;;;;;;536.58;499.45;;;8.30;70.50;;;;;;5132981;27;20057;-79
2022/04/16 04:56:33;;;;;;;588.55;542.53;;;8.30;76.40;;;;;;5132578;27;20356;-77
2022/04/16 04:58:59;;;;;;;523.05;488.27;;;8.70;94.10;;;;;;5114570;27;20066;-77
2022/04/16 05:01:25;;;;;;;673.10;619.80;;;8.60;82.60;;;;;;5132266;27;20047;-77
2022/04/16 05:03:51;;;;;;;534.20;498.35;;;8.30;79.20;;;;;;5114283;27;20189;-76
2022/04/16 05:06:16;;;;;;;600.10;556.30;;;9.00;79.80;;;;;;5133037;27;20501;-76
2022/04/16 05:08:43;;;;;;;855.03;769.58;;;8.30;72.40;;;;;;5132927;27;20145;-77
2022/04/16 05:11:13;;;;;;;649.03;601.95;;;8.30;60.10;;;;;;5114248;27;20074;-76
2022/04/16 05:13:39;;;;;;;653.53;607.20;;;8.30;37.50;;;;;;5132768;27;20047;-76
2022/04/16 05:16:05;;;;;;;588.85;548.58;;;8.30;37.40;;;;;;5132990;27;20091;-76
2022/04/16 05:18:30;;;;;;;680.60;628.22;;;9.40;55.30;;;;;;5132647;27;20126;-78
2022/04/16 05:20:56;;;;;;;644.03;595.60;;;8.30;43.70;;;;;;5113763;27;20131;-76
2022/04/16 05:23:22;;;;;;;594.85;553.33;;;8.30;36.30;;;;;;5132514;27;20073;-76
2022/04/16 05:25:48;;;;;;;527.95;492.60;;;8.30;25.20;;;;;;5132728;27;20046;-76
2022/04/16 05:28:14;;;;;;;571.42;532.22;;;8.60;25.00;;;;;;5132721;27;20055;-76
2022/04/16 05:30:48;;;;;;;602.80;561.47;;;8.40;46.70;;;;;;5114299;27;20129;-76
2022/04/16 05:36:02;;;;;;;781.65;704.90;;;9.20;30.70;;;;;;5131216;27;20150;-77
2022/04/16 05:38:28;;;;;;;585.08;545.95;;;9.20;29.80;;;;;;5132423;27;20078;-76
2022/04/16 05:40:53;;;;;;;571.97;532.38;;;8.50;23.90;;;;;;5132213;27;20094;-77
2022/04/16 05:43:19;;;;;;;707.30;646.28;;;8.50;23.00;;;;;;5132366;27;20043;-76
2022/04/16 05:45:45;;;;;;;821.33;760.45;;;8.60;13.10;;;;;;5114097;27;20097;-77
2022/04/16 05:48:11;;;;;;;915.20;837.70;;;8.60;1.00;;;;;;5113229;27;20126;-76
2022/04/16 05:50:37;;;;;;;1022.83;932.53;;;8.70;1.00;;;;;;5131917;27;20050;-77
2022/04/16 05:53:06;;;;;;;1044.22;955.25;;;8.70;1.00;;;;;;5113648;27;20051;-77
2022/04/16 05:55:32;;;;;;;827.72;754.72;;;9.80;28.50;;;;;;5132279;27;20091;-77
2022/04/16 05:57:58;;;;;;;907.92;818.40;;;8.70;1.00;;;;;;5113854;27;20055;-76
2022/04/16 06:00:25;;;;;;;660.53;612.67;;;8.70;10.10;;;;;;5113336;28;20134;-77
2022/04/16 06:02:51;;;;;;;794.88;734.85;;;8.80;2.70;;;;;;5132100;27;20047;-76
2022/04/16 06:05:16;;;;;;;990.50;899.00;;;8.80;1.00;;;;;;5113370;28;20382;-78
2022/04/16 06:07:43;;;;;;;908.47;833.80;;;8.80;1.00;;;;;;5130422;27;20147;-82
2022/04/16 06:10:09;;;;;;;993.92;900.90;;;8.90;1.00;;;;;;5131436;27;20051;-80
2022/04/16 06:12:34;;;;;;;919.85;837.35;;;8.90;1.00;;;;;;5131616;27;20047;-77
2022/04/16 06:15:05;;;;;;;974.05;881.10;;;8.90;1.00;;;;;;5131430;28;20047;-77
2022/04/16 06:17:31;;;;;;;840.80;767.88;;;8.90;1.00;;;;;;5131701;28;20051;-75
2022/04/16 06:19:57;;;;;;;937.58;845.00;;;10.30;1.00;;;;;;5131467;28;20352;-79
2022/04/16 06:22:23;;;;;;;980.05;888.45;;;8.80;1.00;;;;;;5113592;28;20146;-78
2022/04/16 06:24:49;;;;;;;1012.15;920.83;;;9.00;1.00;;;;;;5096679;28;20139;-75
2022/04/16 06:27:14;;;;;;;980.30;886.80;;;8.90;1.00;;;;;;5131507;28;20096;-77
2022/04/16 06:29:41;;;;;;;968.20;887.00;;;9.00;1.00;;;;;;5112174;28;20047;-76
2022/04/16 06:32:07;;;;;;;1060.72;964.33;;;10.70;1.00;;;;;;5113323;28;20055;-76
2022/04/16 06:34:33;;;;;;;1000.33;907.47;;;9.30;1.00;;;;;;5131453;28;20432;-77
2022/04/16 06:36:59;;;;;;;841.05;760.28;;;9.40;1.00;;;;;;5128943;28;20076;-83
2022/04/16 06:39:25;;;;;;;791.53;716.97;;;11.10;1.00;;;;;;5096203;28;20464;-76
2022/04/16 06:41:50;;;;;;;983.55;879.83;;;9.70;1.00;;;;;;5131751;28;20099;-77
2022/04/16 06:44:16;;;;;;;1080.55;957.83;;;9.70;1.00;;;;;;5112285;28;20047;-77
2022/04/16 06:46:42;;;;;;;975.22;881.10;;;10.90;1.00;;;;;;5096071;28;20045;-77
2022/04/16 06:49:08;;;;;;;983.17;888.08;;;9.70;1.00;;;;;;5112252;28;20479;-77
2022/04/16 06:51:34;;;;;;;1032.03;932.50;;;9.60;1.00;;;;;;5130907;28;20472;-76
2022/04/16 06:54:00;;;;;;;950.95;861.72;;;9.60;1.00;;;;;;5095628;28;20055;-83
2022/04/16 06:56:25;;;;;;;884.00;800.35;;;9.60;1.00;;;;;;5111710;28;20051;-76
2022/04/16 06:58:51;;;;;;;1073.78;958.78;;;9.90;1.00;;;;;;5113068;28;20146;-77
2022/04/16 07:01:17;;;;;;;931.42;843.25;;;9.40;1.00;;;;;;5130822;28;20047;-78
2022/04/16 07:03:43;;;;;;;917.08;840.47;;;9.30;1.00;;;;;;5131259;28;20476;-77
2022/04/16 07:06:08;;;;;;;826.72;763.80;;;9.30;1.00;;;;;;5074687;28;20035;-76
2022/04/16 07:08:34;;;;;;;939.13;857.50;;;9.30;1.00;;;;;;5112302;28;20098;-78
2022/04/16 07:11:00;;;;;;;933.50;857.40;;;9.30;1.00;;;;;;5130839;28;20058;-84
2022/04/16 07:13:26;;;;;;;922.97;850.17;;;9.30;1.00;;;;;;5131280;28;20039;-76
2022/04/16 07:15:51;;;;;;;918.17;848.65;;;9.40;1.00;;;;;;5131091;28;20092;-77
2022/04/16 07:18:17;;;;;;;897.83;830.10;;;9.40;1.00;;;;;;5130956;28;20043;-75
2022/04/16 07:20:43;;;;;;;896.22;827.47;;;10.70;1.00;;;;;;5112613;28;20043;-77
2022/04/16 07:23:09;;;;;;;921.13;850.83;;;9.50;1.00;;;;;;5112565;28;20054;-77
2022/04/16 07:25:35;;;;;;;891.08;821.45;;;10.50;1.00;;;;;;5099753;27;20571;-78
2022/04/16 07:28:00;;;;;;;935.03;865.03;;;9.50;1.00;;;;;;5116586;27;20085;-77
2022/04/16 07:30:27;;;;;;;912.15;841.05;;;9.70;1.00;;;;;;5116130;27;20125;-79
2022/04/16 07:32:53;;;;;;;825.88;762.28;;;11.30;1.00;;;;;;5133762;27;20051;-77
2022/04/16 07:35:19;;;;;;;720.63;666.78;;;12.90;1.00;;;;;;5133480;27;20471;-76
2022/04/16 07:37:48;;;;;;;772.83;713.40;;;14.20;1.00;;;;;;5134219;27;20050;-80
2022/04/16 07:40:14;;;;;;;764.15;705.97;;;15.60;1.00;;;;;;5115561;27;20118;-76
2022/04/16 07:42:40;;;;;;;796.60;733.97;;;16.70;1.00;;;;;;5134260;27;20126;-82
2022/04/16 07:45:06;;;;;;;689.60;639.78;;;17.90;1.00;;;;;;5133900;27;20472;-84
2022/04/16 07:47:32;;;;;;;599.50;559.53;;;18.40;99.90;;;;;;5134720;27;20054;-77
2022/04/16 07:49:58;;;;;;;662.75;618.05;;;18.40;99.90;;;;;;5133907;27;20367;-76
2022/04/16 07:52:25;;;;;;;601.92;560.92;;;18.80;99.90;;;;;;5115554;27;20177;-77
2022/04/16 07:54:52;;;;;;;805.78;743.22;;;19.30;99.90;;;;;;5116203;27;20054;-76
2022/04/16 07:57:17;;;;;;;763.87;708.93;;;20.00;99.90;;;;;;5115278;27;20044;-78
2022/04/16 07:59:43;;;;;;;645.00;600.17;;;20.40;99.90;;;;;;5134580;27;20111;-76
2022/04/16 08:02:09;;;;;;;705.70;657.47;;;21.00;99.90;;;;;;5133893;27;20054;-76
2022/04/16 08:04:34;;;;;;;812.05;752.33;;;21.50;99.90;;;;;;5134073;27;20130;-83
2022/04/16 08:07:00;;;;;;;600.30;560.92;;;21.20;99.90;;;;;;5134528;27;20467;-76
2022/04/16 08:09:26;;;;;;;699.55;649.95;;;20.60;99.90;;;;;;5115163;27;20301;-76
2022/04/16 08:11:51;;;;;;;754.97;698.50;;;20.90;99.90;;;;;;5133859;27;20047;-76
2022/04/16 08:14:17;;;;;;;573.88;536.13;;;21.30;99.90;;;;;;5115424;27;20125;-75
2022/04/16 08:16:43;;;;;;;616.28;574.42;;;21.00;99.90;;;;;;5134096;27;20047;-76
2022/04/16 08:19:08;;;;;;;528.60;494.50;;;20.70;99.90;;;;;;5133989;27;20035;-76
2022/04/16 08:21:34;;;;;;;602.45;561.30;;;20.50;99.90;;;;;;5115598;27;20072;-76
2022/04/16 08:24:13;;;;;;;531.42;495.73;;;20.90;99.90;;;;;;5134018;27;20047;-77
2022/04/16 08:26:42;;;;;;;524.45;488.73;;;20.70;99.90;;;;;;5134145;27;20455;-76
2022/04/16 08:29:08;;;;;;;458.77;430.58;;;20.30;99.90;;;;;;5133485;27;20039;-80
2022/04/16 08:31:34;;;;;;;501.77;470.33;;;20.90;99.90;;;;;;5133691;27;20054;-76
2022/04/16 08:34:00;;;;;;;398.38;375.00;;;21.70;99.90;;;;;;5115322;27;20377;-76
2022/04/16 08:36:26;;;;;;;456.13;428.65;;;21.00;99.90;;;;;;5114939;27;20503;-76
2022/04/16 08:38:52;;;;;;;408.73;384.42;;;21.20;99.90;;;;;;5115496;27;20039;-77
2022/04/16 08:41:18;;;;;;;439.60;413.25;;;21.00;99.90;;;;;;5114813;27;20078;-77
2022/04/16 08:43:44;;;;;;;485.67;455.90;;;21.90;99.90;;;;;;5133808;27;20516;-76
2022/04/16 08:46:10;;;;;;;439.75;412.08;;;22.70;99.90;;;;;;5133524;27;20047;-78
2022/04/16 08:48:37;;;;;;;455.85;427.38;;;22.50;99.90;;;;;;5133281;27;20043;-76
2022/04/16 08:51:03;;;;;;;502.00;467.02;;;23.20;99.90;;;;;;5133198;27;20118;-78
2022/04/16 08:53:28;;;;;;;404.77;380.25;;;22.20;99.90;;;;;;5114926;27;20389;-76
2022/04/16 08:55:54;;;;;;;469.52;440.83;;;22.80;99.90;;;;;;5133029;27;20054;-77
2022/04/16 08:58:20;;;;;;;459.33;430.13;;;22.80;99.90;;;;;;5133239;27;20130;-76
2022/04/16 09:00:46;;;;;;;446.88;416.67;;;23.20;99.90;;;;;;5097708;27;20099;-76
2022/04/16 09:03:12;;;;;;;505.02;472.50;;;21.40;99.90;;;;;;5133177;27;20047;-78
2022/04/16 09:05:40;;;;;;;544.10;508.67;;;21.40;99.90;;;;;;5133382;27;20065;-76
2022/04/16 09:08:07;;;;;;;295.02;277.17;;;21.70;99.90;;;;;;5114901;27;20051;-77
2022/04/16 09:10:36;;;;;;;456.50;426.60;;;21.40;99.90;;;;;;5132837;27;20201;-78
2022/04/16 09:13:05;;;;;;;458.98;430.48;;;22.00;99.90;;;;;;5132855;27;20055;-78
2022/04/16 09:15:34;;;;;;;396.25;371.08;;;21.00;99.90;;;;;;5132731;27;20485;-76
2022/04/16 09:18:05;;;;;;;513.63;481.65;;;20.80;99.90;;;;;;5114904;27;20437;-76
2022/04/16 09:20:33;;;;;;;524.08;490.15;;;20.60;99.90;;;;;;5096740;27;20055;-79
2022/04/16 09:23:00;;;;;;;435.83;408.77;;;21.80;99.90;;;;;;5115156;27;20054;-76
2022/04/16 09:25:29;;;;;;;461.45;430.25;;;22.00;99.90;;;;;;5132925;27;20051;-79
2022/04/16 09:27:55;;;;;;;413.27;387.80;;;21.30;99.90;;;;;;5133253;27;20050;-79
2022/04/16 09:30:30;;;;;;;470.80;440.73;;;22.40;99.90;;;;;;5132646;27;20046;-78
2022/04/16 09:32:58;;;;;;;399.98;375.20;;;23.30;99.90;;;;;;5114368;27;20043;-77
2022/04/16 09:35:42;;;;;;;335.42;315.00;;;23.50;99.90;;;;;;5132608;27;20047;-77
2022/04/16 09:38:12;;;;;;;519.13;484.55;;;23.50;99.90;;;;;;5133191;27;20047;-79
2022/04/16 09:40:41;;;;;;;490.42;458.63;;;22.70;99.90;;;;;;5134376;27;20050;-78
2022/04/16 09:43:08;;;;;;;554.20;516.35;;;21.40;99.90;;;;;;5099354;27;20050;-78
2022/04/16 09:45:37;;;;;;;529.42;493.30;;;21.90;99.90;;;;;;5097230;27;20047;-77
2022/04/16 09:48:04;;;;;;;580.60;541.88;;;22.60;99.90;;;;;;5132811;27;20046;-77
2022/04/16 09:50:30;;;;;;;534.72;500.42;;;21.70;99.90;;;;;;5132672;27;20058;-77
2022/04/16 09:52:59;;;;;;;597.03;557.15;;;22.20;99.90;;;;;;5115204;27;20043;-77
2022/04/16 09:55:26;;;;;;;437.40;409.63;;;22.90;99.90;;;;;;5135018;27;20054;-78
2022/04/16 09:58:01;;;;;;;404.00;377.52;;;22.30;99.90;;;;;;5141538;27;20039;-77
2022/04/16 10:00:28;;;;;;;543.22;504.58;;;23.30;99.90;;;;;;5115702;27;20073;-79
2022/04/16 10:02:54;;;;;;;533.30;495.13;;;23.10;99.90;;;;;;5119308;28;20043;-78
2022/04/16 10:05:24;;;;;;;484.33;452.70;;;22.50;99.90;;;;;;5144915;27;20054;-78
2022/04/16 10:07:52;;;;;;;294.27;276.45;;;22.50;99.90;;;;;;5144123;27;20099;-79
2022/04/16 10:10:31;;;;;;;638.88;579.55;;;22.70;99.90;;;;;;5142996;27;20039;-80
2022/04/16 10:13:03;;;;;;;;;;;21.90;99.90;;;;;;5123831;28;20077;-78
2022/04/16 10:15:57;;;;;;;232.70;219.52;;;22.20;99.90;;;;;;5148875;28;19927;-77
2022/04/16 10:18:24;;;;;;;384.08;359.05;;;22.90;99.90;;;;;;5122463;28;20078;-82
2022/04/16 10:20:55;;;;;;;491.20;459.20;;;23.10;99.90;;;;;;5147734;28;20440;-75
2022/04/16 10:23:28;;;;;;;242.40;228.00;;;23.90;99.90;;;;;;5142759;28;20039;-83
2022/04/16 10:26:01;;;;;;;371.75;347.42;;;22.80;99.90;;;;;;5147786;28;20051;-76
2022/04/16 10:28:38;;;;;;;318.60;299.30;;;24.40;99.90;;;;;;5142246;28;20202;-76
2022/04/16 10:31:05;;;;;;;282.45;265.27;;;25.50;99.90;;;;;;5133899;28;20055;-77
2022/04/16 10:33:31;;;;;;;281.30;264.17;;;24.60;99.90;;;;;;5132810;28;20058;-77
2022/04/16 10:36:10;;;;;;;238.23;224.88;;;24.70;99.90;;;;;;5113682;28;20039;-77
2022/04/16 10:38:40;;;;;;;444.13;415.05;;;24.60;99.90;;;;;;5132704;28;20407;-78
2022/04/16 10:41:14;;;;;;;306.92;287.40;;;25.10;99.90;;;;;;5114345;28;20055;-78
2022/04/16 10:43:40;;;;;;;250.75;235.75;;;24.80;99.90;;;;;;5113922;28;20403;-79
2022/04/16 10:46:09;;;;;;;226.90;213.98;;;24.60;99.90;;;;;;5114991;28;20441;-81
2022/04/16 10:48:37;;;;;;;195.23;184.75;;;24.20;99.90;;;;;;5131569;28;20039;-78
2022/04/16 10:51:07;;;;;;;440.70;412.85;;;23.70;99.90;;;;;;5131638;28;20118;-77
2022/04/16 10:53:35;;;;;;;318.92;297.08;;;23.60;99.90;;;;;;5131669;28;20138;-78
2022/04/16 10:56:20;;;;;;;332.60;312.58;;;23.30;99.90;;;;;;5131884;28;20063;-78
2022/04/16 10:58:59;;;;;;;168.38;159.20;;;24.40;99.90;;;;;;5134051;27;20134;-81
2022/04/16 11:01:31;;;;;;;195.77;183.80;;;24.20;99.90;;;;;;5135598;27;20062;-77
2022/04/16 11:03:57;;;;;;;262.80;246.48;;;23.40;99.90;;;;;;5116772;27;20047;-80
2022/04/16 11:06:34;;;;;;;275.45;258.52;;;22.10;99.90;;;;;;5135710;27;20079;-86
2022/04/16 11:09:00;;;;;;;289.33;271.67;;;22.00;99.90;;;;;;5135529;27;20142;-78
2022/04/16 11:11:25;;;;;;;372.80;345.13;;;21.90;99.90;;;;;;5116871;27;20471;-79
2022/04/16 11:13:51;;;;;;;240.07;226.07;;;21.60;99.90;;;;;;5100429;27;20179;-79
2022/04/16 11:16:22;;;;;;;340.30;315.13;;;22.30;99.90;;;;;;5135729;27;20062;-79
2022/04/16 11:18:48;;;;;;;197.18;186.40;;;22.40;99.90;;;;;;5134948;27;20126;-82
2022/04/16 11:21:18;;;;;;;345.90;318.08;;;22.50;99.90;;;;;;5134844;27;20051;-79
2022/04/16 11:23:51;;;;;;;254.82;235.68;;;20.70;99.90;;;;;;5135110;27;20047;-87
2022/04/16 11:34:42;;;;;;;280.23;262.52;;;20.70;99.90;;;;;;5134271;27;20069;-77
2022/04/16 11:37:08;;;;;;;157.25;148.27;;;21.50;99.90;;;;;;5115842;27;20043;-77
2022/04/16 11:39:34;;;;;;;400.15;362.95;;;21.80;99.90;;;;;;5134877;27;20035;-80
2022/04/16 11:42:07;;;;;;;177.45;167.57;;;21.80;99.90;;;;;;5135308;27;20463;-78
2022/04/16 11:44:41;;;;;;;331.27;309.88;;;22.80;99.90;;;;;;5135009;27;20055;-78
2022/04/16 11:47:07;;;;;;;253.40;239.15;;;24.30;99.90;;;;;;5117072;27;20115;-78
2022/04/16 11:49:37;;;;;;;197.10;186.07;;;24.60;99.90;;;;;;5116010;27;20142;-78
2022/04/16 11:52:05;;;;;;;205.63;194.13;;;24.40;99.90;;;;;;5135600;27;20086;-78
2022/04/16 11:54:31;;;;;;;188.57;178.20;;;25.50;99.90;;;;;;5134972;27;20078;-79
2022/04/16 11:56:57;;;;;;;236.65;222.80;;;24.10;99.90;;;;;;5134955;27;20149;-78
2022/04/16 11:59:25;;;;;;;199.65;188.98;;;24.70;99.90;;;;;;5134349;27;20491;-79
2022/04/16 12:02:09;;;;;;;310.67;291.17;;;25.10;99.90;;;;;;5134558;27;20043;-76
2022/04/16 12:04:39;;;;;;;180.02;169.73;;;24.80;99.90;;;;;;5133885;27;20059;-77
2022/04/16 12:07:16;;;;;;;194.25;183.20;;;24.10;99.90;;;;;;5099296;27;20058;-77
2022/04/16 12:09:44;;;;;;;193.27;182.23;;;23.90;99.90;;;;;;5133096;27;20066;-79
2022/04/16 12:12:14;;;;;;;228.32;214.88;;;23.30;99.90;;;;;;5134873;27;20483;-78
2022/04/16 12:14:47;;;;;;;275.67;255.88;;;22.70;99.90;;;;;;5133896;27;20118;-76
2022/04/16 12:17:29;;;;;;;260.73;244.48;;;21.90;99.90;;;;;;5099315;27;20047;-76
2022/04/16 12:20:15;;;;;;;247.07;231.45;;;20.50;99.90;;;;;;5133935;27;20039;-77
2022/04/16 12:23:02;;;;;;;151.38;143.27;;;19.90;99.90;;;;;;5133369;27;20082;-76
2022/04/16 12:25:29;;;;;;;381.88;356.05;;;19.20;99.90;;;;;;5134437;27;20050;-77
2022/04/16 12:28:00;;;;;;;271.55;255.05;;;18.30;99.90;;;;;;5082239;27;20055;-77
2022/04/16 12:30:35;;;;;;;393.60;366.80;;;18.00;99.90;;;;;;5134103;27;20039;-76
2022/04/16 12:33:07;;;;;;;549.92;509.27;;;17.70;99.90;;;;;;5134278;27;20051;-77
2022/04/16 12:35:34;;;;;;;554.45;518.78;;;17.70;99.90;;;;;;5113689;27;20058;-81
2022/04/16 12:38:01;;;;;;;;;;;17.60;99.90;;;;;;5114956;27;20043;-77
2022/04/16 12:40:28;;;;;;;1999.90;999.90;;;17.50;99.90;;;;;;5132797;27;19943;-78